Le Roy, Michigan
Current Conditions -  °F | °C
As of 1:15 PM on Friday 28 Nov 2014 (Local Time) from KCAD Reporting Station
Light Snow Light Snow  
Wind Chill: 11°   Ceiling: 1800
Heat Index: 20°   Visibility: 5mi
Dew Point: 16°   Wind: 8mph
Humidity: 84%   Direction: 180°S
Pressure: 30.1"   Gusts: NA
Location:  44.0236°N, 85.4348°W
Report Text: KCAD 281815Z AUTO 18007KT 5SM -SN OVC018 M06/M08 A3010 RMK AO2 T10651088
Loading
Personal Weather Stations






























Interactive Weather Map New forecast layout! Learn more

10-Day Weather Forecast

Advertisements
Track Severe Weather on mobile